createdAt,value
2023-05-02T00:00:05.961Z,100258.81
2023-05-02T00:02:33.202Z,100260.88
2023-05-02T00:04:59.760Z,100262.06
2023-05-02T00:07:26.256Z,100268.59
2023-05-02T00:09:52.709Z,100264.28
2023-05-02T00:12:20.470Z,100268.22
2023-05-02T00:14:46.884Z,100258.56
2023-05-02T00:17:16.934Z,100268.84
2023-05-02T00:19:43.294Z,100269.06
2023-05-02T00:22:09.782Z,100270.00
2023-05-02T00:24:36.440Z,100265.88
2023-05-02T00:27:02.985Z,100256.91
2023-05-02T00:29:30.834Z,100260.53
2023-05-02T00:31:57.582Z,100254.56
2023-05-02T00:34:24.075Z,100262.09
2023-05-02T00:36:50.541Z,100259.69
2023-05-02T00:39:16.971Z,100269.75
2023-05-02T00:41:43.358Z,100269.31
2023-05-02T00:44:09.762Z,100269.50
2023-05-02T00:46:37.774Z,100270.78
2023-05-02T00:49:04.286Z,100272.00
2023-05-02T00:51:32.913Z,100270.34
2023-05-02T00:54:00.538Z,100275.09
2023-05-02T00:56:27.726Z,100278.72
2023-05-02T00:58:54.472Z,100278.13
2023-05-02T01:01:33.271Z,100287.38
2023-05-02T01:04:12.122Z,100289.34
2023-05-02T01:06:53.116Z,100292.16
2023-05-02T01:09:34.264Z,100293.09
2023-05-02T01:12:04.742Z,100284.16
2023-05-02T01:14:35.084Z,100289.34
2023-05-02T01:17:03.942Z,100283.91
2023-05-02T01:19:35.899Z,100292.97
2023-05-02T01:22:05.264Z,100295.66
2023-05-02T01:24:38.789Z,100298.41
2023-05-02T01:27:15.491Z,100302.06
2023-05-02T01:29:45.216Z,100301.94
2023-05-02T01:32:13.454Z,100306.50
2023-05-02T01:34:43.084Z,100307.34
2023-05-02T01:37:13.174Z,100306.50
2023-05-02T01:39:40.946Z,100307.34
2023-05-02T01:42:07.369Z,100309.06
2023-05-02T01:44:35.729Z,100311.78
2023-05-02T01:47:05.794Z,100311.56
2023-05-02T01:49:34.047Z,100313.22
2023-05-02T01:52:04.814Z,100315.75
2023-05-02T01:54:33.327Z,100316.44
2023-05-02T01:57:01.380Z,100317.16
2023-05-02T01:59:29.843Z,100319.75
2023-05-02T02:01:57.175Z,100335.06
2023-05-02T02:04:25.537Z,100330.59
2023-05-02T02:06:57.806Z,100325.13
2023-05-02T02:09:25.000Z,100328.78
2023-05-02T02:11:57.527Z,100337.84
2023-05-02T02:14:27.574Z,100332.56
2023-05-02T02:16:58.154Z,100332.56
2023-05-02T02:19:27.275Z,100335.28
2023-05-02T02:21:55.677Z,100337.97
2023-05-02T02:24:22.611Z,100347.94
2023-05-02T02:26:49.076Z,100354.25
2023-05-02T02:29:15.484Z,100353.34
2023-05-02T02:31:41.910Z,100350.66
2023-05-02T02:34:08.520Z,100347.94
2023-05-02T02:36:45.395Z,100356.06
2023-05-02T02:39:23.873Z,100351.47
2023-05-02T02:42:00.639Z,100359.59
2023-05-02T02:44:39.889Z,100364.06
2023-05-02T02:47:11.633Z,100363.25
2023-05-02T02:49:47.989Z,100369.50
2023-05-02T02:52:22.211Z,100379.41
2023-05-02T02:54:54.481Z,100374.00
2023-05-02T02:57:33.023Z,100374.94
2023-05-02T03:00:07.001Z,100376.72
2023-05-02T03:02:36.249Z,100381.25
2023-05-02T03:05:04.312Z,100379.34
2023-05-02T03:07:32.382Z,100383.88
2023-05-02T03:10:02.789Z,100389.28
2023-05-02T03:12:29.901Z,100386.56
2023-05-02T03:15:08.393Z,100390.97
2023-05-02T03:17:35.692Z,100394.63
2023-05-02T03:20:02.306Z,100391.94
2023-05-02T03:22:28.919Z,100394.63
2023-05-02T03:24:56.757Z,100394.63
2023-05-02T03:27:23.201Z,100393.81
2023-05-02T03:29:50.094Z,100401.94
2023-05-02T03:32:16.527Z,100409.25
2023-05-02T03:34:43.774Z,100413.72
2023-05-02T03:37:11.067Z,100410.09
2023-05-02T03:39:37.537Z,100410.16
2023-05-02T03:42:05.584Z,100414.69
2023-05-02T03:44:32.031Z,100411.13
2023-05-02T03:46:58.540Z,100419.22
2023-05-02T03:49:25.672Z,100430.94
2023-05-02T03:51:53.219Z,100421.97
2023-05-02T03:54:24.750Z,100427.41
2023-05-02T03:56:53.487Z,100429.28
2023-05-02T03:59:26.908Z,100429.41
2023-05-02T04:01:54.671Z,100442.03
2023-05-02T04:04:27.148Z,100447.44
2023-05-02T04:06:54.756Z,100447.44
2023-05-02T04:09:21.810Z,100453.81
2023-05-02T04:11:53.650Z,100460.09
2023-05-02T04:14:20.187Z,100467.25
2023-05-02T04:16:51.724Z,100476.22
2023-05-02T04:19:24.859Z,100480.66
2023-05-02T04:21:51.353Z,100492.34
2023-05-02T04:24:17.791Z,100492.28
2023-05-02T04:26:44.675Z,100490.47
2023-05-02T04:29:12.631Z,100499.38
2023-05-02T04:31:39.701Z,100500.19
2023-05-02T04:34:07.751Z,100499.25
2023-05-02T04:36:40.237Z,100506.31
2023-05-02T04:39:08.928Z,100505.34
2023-05-02T04:41:38.862Z,100510.69
2023-05-02T04:44:06.935Z,100519.59
2023-05-02T04:46:34.633Z,100518.63
2023-05-02T04:49:01.292Z,100525.72
2023-05-02T04:51:29.111Z,100524.72
2023-05-02T04:53:55.595Z,100529.03
2023-05-02T04:56:22.197Z,100536.22
2023-05-02T04:58:49.281Z,100538.84
2023-05-02T05:01:16.353Z,100543.31
2023-05-02T05:05:41.138Z,100550.53
2023-05-02T05:08:18.345Z,100551.44
2023-05-02T05:10:49.596Z,100563.09
2023-05-02T05:13:37.662Z,100568.47
2023-05-02T05:16:17.612Z,100576.38
2023-05-02T05:18:45.221Z,100573.66
2023-05-02T05:21:30.379Z,100586.84
2023-05-02T05:23:58.381Z,100586.72
2023-05-02T05:26:30.144Z,100596.41
2023-05-02T05:28:59.224Z,100600.03
2023-05-02T05:31:38.712Z,100602.50
2023-05-02T05:34:06.618Z,100606.34
2023-05-02T05:36:45.840Z,100610.72
2023-05-02T05:39:24.101Z,100603.78
2023-05-02T05:42:12.491Z,100607.13
2023-05-02T05:44:41.821Z,100610.66
2023-05-02T05:47:09.178Z,100626.94
2023-05-02T05:49:38.734Z,100622.56
2023-05-02T05:52:10.249Z,100632.47
2023-05-02T05:54:36.944Z,100634.22
2023-05-02T05:57:07.557Z,100644.22
2023-05-02T05:59:37.045Z,100646.06
2023-05-02T06:02:07.135Z,100648.91
2023-05-02T06:04:54.836Z,100658.09
2023-05-02T06:07:26.721Z,100661.53
2023-05-02T06:09:53.569Z,100656.22
2023-05-02T06:12:23.245Z,100656.34
2023-05-02T06:14:50.961Z,100661.66
2023-05-02T06:17:20.579Z,100656.97
2023-05-02T06:19:50.134Z,100655.00
2023-05-02T06:22:18.660Z,100682.94
2023-05-02T06:24:53.268Z,100679.03
2023-05-02T06:27:25.915Z,100680.66
2023-05-02T06:30:00.019Z,100684.88
2023-05-02T06:32:45.255Z,100689.13
2023-05-02T06:35:21.490Z,100699.47
2023-05-02T06:38:00.166Z,100703.81
2023-05-02T06:40:33.601Z,100711.03
2023-05-02T06:43:00.233Z,100716.38
2023-05-02T06:45:28.952Z,100717.06
2023-05-02T06:48:11.639Z,100724.38
2023-05-02T06:50:38.586Z,100733.00
2023-05-02T06:53:10.021Z,100728.47
2023-05-02T06:55:40.699Z,100731.25
2023-05-02T06:58:07.682Z,100738.44
2023-05-02T07:00:43.775Z,100743.66
2023-05-02T07:03:21.051Z,100734.44
2023-05-02T07:06:16.122Z,100752.06
2023-05-02T07:09:28.546Z,100748.75
2023-05-02T07:11:57.167Z,100754.19
2023-05-02T07:14:37.049Z,100756.09
2023-05-02T07:17:17.956Z,100762.81
2023-05-02T07:20:25.261Z,100769.78
2023-05-02T07:23:01.959Z,100759.03
2023-05-02T07:25:40.399Z,100782.06
2023-05-02T07:28:21.059Z,100778.28
2023-05-02T07:31:08.301Z,100777.56
2023-05-02T07:33:37.641Z,100795.16
2023-05-02T07:36:23.129Z,100788.59
2023-05-02T07:38:58.375Z,100787.81
2023-05-02T07:41:27.570Z,100787.97
2023-05-02T07:44:05.197Z,100789.63
2023-05-02T07:46:36.242Z,100803.63
2023-05-02T07:49:13.805Z,100804.59
2023-05-02T07:51:42.834Z,100800.06
2023-05-02T07:54:16.202Z,100805.84
2023-05-02T07:56:42.911Z,100817.22
2023-05-02T07:59:18.817Z,100800.06
2023-05-02T08:01:45.722Z,100800.06
2023-05-02T08:04:18.170Z,100811.03
2023-05-02T08:06:48.187Z,100822.91
2023-05-02T08:09:14.956Z,100832.00
2023-05-02T08:11:47.713Z,100843.34
2023-05-02T08:28:32.760Z,100863.66
2023-05-02T08:32:05.638Z,100869.25
2023-05-02T08:34:53.334Z,100881.41
2023-05-02T08:37:35.671Z,100870.75
2023-05-02T08:40:07.999Z,100866.22
2023-05-02T08:42:42.292Z,100884.81
2023-05-02T08:45:15.590Z,100885.47
2023-05-02T08:47:44.499Z,100874.53
2023-05-02T08:50:16.520Z,100883.94
2023-05-02T08:52:45.087Z,100873.63
2023-05-02T08:55:17.511Z,100888.94
2023-05-02T08:57:44.604Z,100888.28
2023-05-02T09:00:22.334Z,100881.69
2023-05-02T09:03:13.802Z,100892.00
2023-05-02T09:06:09.499Z,100896.03
2023-05-02T09:12:51.140Z,100895.88
2023-05-02T09:15:47.919Z,100910.19
2023-05-02T09:18:43.244Z,100904.59
2023-05-02T09:22:11.959Z,100907.13
2023-05-02T09:45:44.531Z,100924.22
2023-05-02T09:51:43.442Z,100909.63
2023-05-02T09:54:47.945Z,100923.00
2023-05-02T10:02:04.344Z,100917.59
2023-05-02T10:08:22.802Z,100925.00
2023-05-02T10:12:49.216Z,100925.16
2023-05-02T10:15:20.566Z,100925.78
2023-05-02T10:18:03.317Z,100928.00
2023-05-02T10:20:45.357Z,100919.56
2023-05-02T10:27:24.815Z,100925.94
2023-05-02T10:30:44.301Z,100918.88
2023-05-02T10:37:48.635Z,100934.63
2023-05-02T10:41:03.659Z,100930.63
2023-05-02T10:43:54.411Z,100932.56
2023-05-02T10:51:02.861Z,100926.22
2023-05-02T10:54:19.583Z,100923.53
2023-05-02T10:57:24.560Z,100919.16
2023-05-02T11:00:25.892Z,100921.34
2023-05-02T11:03:07.208Z,100927.72
2023-05-02T11:06:06.114Z,100931.78
2023-05-02T11:08:32.512Z,100927.22
2023-05-02T11:11:38.359Z,100935.13
2023-05-02T11:14:04.788Z,100939.00
2023-05-02T11:17:04.925Z,100935.94
2023-05-02T11:20:11.324Z,100929.31
2023-05-02T11:22:37.855Z,100926.25
2023-05-02T11:25:04.704Z,100922.94
2023-05-02T11:27:37.613Z,100929.53
2023-05-02T11:30:05.268Z,100933.09
2023-05-02T11:33:05.320Z,100955.03
2023-05-02T11:35:35.588Z,100951.38
2023-05-02T11:38:03.458Z,100962.78
2023-05-02T11:40:30.805Z,100958.03
2023-05-02T11:42:58.820Z,100967.44
2023-05-02T11:45:33.485Z,100967.41
2023-05-02T11:48:00.155Z,100967.75
2023-05-02T11:50:27.443Z,100984.38
2023-05-02T11:52:55.275Z,100983.44
2023-05-02T11:55:22.201Z,100990.94
2023-05-02T11:57:48.790Z,100993.72
2023-05-02T12:00:15.880Z,101000.69
2023-05-02T12:02:44.098Z,101001.09
2023-05-02T12:05:11.794Z,101008.75
2023-05-02T12:07:39.028Z,101007.91
2023-05-02T12:10:08.683Z,101018.00
2023-05-02T12:12:35.423Z,101018.63
2023-05-02T12:15:04.430Z,101023.00
2023-05-02T12:17:34.503Z,101028.88
2023-05-02T12:20:03.404Z,101031.63
2023-05-02T12:22:30.069Z,101026.91
2023-05-02T12:24:56.693Z,101022.06
2023-05-02T12:27:24.626Z,101034.59
2023-05-02T12:29:51.371Z,101035.09
2023-05-02T12:32:28.322Z,101040.97
2023-05-02T12:34:54.991Z,101042.78
2023-05-02T12:37:25.523Z,101050.97
2023-05-02T12:39:52.032Z,101054.50
2023-05-02T12:42:20.734Z,101062.47
2023-05-02T12:44:50.596Z,101066.22
2023-05-02T12:47:17.104Z,101069.16
2023-05-02T12:49:50.555Z,101065.91
2023-05-02T12:52:17.225Z,101065.25
2023-05-02T12:54:44.631Z,101063.72
2023-05-02T12:57:22.578Z,101054.03
2023-05-02T12:59:52.098Z,101054.91
2023-05-02T13:02:18.929Z,101067.47
2023-05-02T13:04:45.440Z,101070.06
2023-05-02T13:07:11.910Z,101074.25
2023-05-02T13:09:38.399Z,101073.59
2023-05-02T13:12:05.337Z,101064.69
2023-05-02T13:14:32.066Z,101072.22
2023-05-02T13:16:59.938Z,101074.06
2023-05-02T13:19:26.439Z,101081.53
2023-05-02T13:21:52.848Z,101070.09
2023-05-02T13:24:19.253Z,101084.78
2023-05-02T13:26:46.079Z,101079.41
2023-05-02T13:29:12.496Z,101093.25
2023-05-02T13:31:39.062Z,101092.34
2023-05-02T13:34:06.895Z,101092.88
2023-05-02T13:36:33.337Z,101098.19
2023-05-02T13:38:59.811Z,101097.28
2023-05-02T13:41:26.353Z,101090.84
2023-05-02T13:43:52.886Z,101100.91
2023-05-02T13:46:19.350Z,101100.00
2023-05-02T13:48:45.756Z,101108.03
2023-05-02T13:51:13.690Z,101106.16
2023-05-02T13:53:40.154Z,101113.97
2023-05-02T13:56:06.800Z,101110.59
2023-05-02T13:58:33.204Z,101108.06
2023-05-02T14:00:59.648Z,101110.91
2023-05-02T14:06:38.050Z,101111.75
2023-05-02T14:09:04.629Z,101114.28
2023-05-02T14:11:31.060Z,101112.22
2023-05-02T14:13:57.480Z,101117.66
2023-05-02T14:16:23.978Z,101118.31
2023-05-02T14:18:50.391Z,101120.91
2023-05-02T14:21:19.592Z,101120.91
2023-05-02T14:23:47.407Z,101128.03
2023-05-02T14:26:13.963Z,101128.50
2023-05-02T14:28:40.602Z,101118.00
2023-05-02T14:31:07.107Z,101121.47
2023-05-02T14:33:33.528Z,101127.91
2023-05-02T14:36:01.206Z,101127.53
2023-05-02T14:38:27.643Z,101119.81
2023-05-02T14:40:55.445Z,101123.69
2023-05-02T14:43:21.839Z,101126.38
2023-05-02T14:45:48.299Z,101118.13
2023-05-02T14:48:15.036Z,101118.88
2023-05-02T14:50:41.600Z,101128.69
2023-05-02T14:53:07.973Z,101125.25
2023-05-02T14:55:36.156Z,101129.94
2023-05-02T14:58:41.274Z,101125.47
2023-05-02T15:01:15.368Z,101131.16
2023-05-02T15:04:03.560Z,101139.38
2023-05-02T15:06:29.153Z,101147.03
2023-05-02T15:08:55.651Z,101143.47
2023-05-02T15:11:24.377Z,101154.22
2023-05-02T15:13:52.043Z,101155.38
2023-05-02T15:16:22.583Z,101154.66
2023-05-02T15:18:49.876Z,101154.44
2023-05-02T15:21:16.300Z,101153.88
2023-05-02T15:23:42.784Z,101148.91
2023-05-02T15:26:09.186Z,101150.31
2023-05-02T15:28:35.663Z,101154.97
2023-05-02T15:31:05.276Z,101155.91
2023-05-02T15:33:33.071Z,101159.44
2023-05-02T15:35:59.478Z,101171.63
2023-05-02T15:38:26.322Z,101170.00
2023-05-02T15:40:56.244Z,101168.84
2023-05-02T15:43:23.027Z,101178.94
2023-05-02T15:45:53.565Z,101175.28
2023-05-02T15:48:20.283Z,101178.94
2023-05-02T15:50:48.282Z,101173.69
2023-05-02T15:53:15.132Z,101176.69
2023-05-02T15:55:41.839Z,101181.97
2023-05-02T15:58:08.936Z,101188.53
2023-05-02T16:00:35.433Z,101183.34
2023-05-02T16:03:03.703Z,101189.03
2023-05-02T16:05:30.444Z,101194.50
2023-05-02T16:07:58.311Z,101195.13
2023-05-02T16:10:24.737Z,101202.06
2023-05-02T16:12:51.209Z,101202.06
2023-05-02T16:15:17.686Z,101207.75
2023-05-02T16:17:44.120Z,101208.34
2023-05-02T16:20:12.834Z,101205.69
2023-05-02T16:22:39.533Z,101211.19
2023-05-02T16:25:07.713Z,101215.78
2023-05-02T16:27:34.209Z,101220.72
2023-05-02T16:30:00.821Z,101222.63
2023-05-02T16:32:27.460Z,101223.56
2023-05-02T16:34:53.965Z,101219.91
2023-05-02T16:37:20.507Z,101221.88
2023-05-02T16:39:46.918Z,101221.16
2023-05-02T16:42:14.686Z,101239.56
2023-05-02T16:44:41.113Z,101237.88
2023-05-02T16:47:07.739Z,101242.47
2023-05-02T16:49:34.319Z,101246.03
2023-05-02T16:52:00.786Z,101247.84
2023-05-02T16:54:27.269Z,101245.19
2023-05-02T16:56:53.765Z,101247.16
2023-05-02T16:59:21.494Z,101249.88
2023-05-02T17:01:47.982Z,101250.34
2023-05-02T17:04:17.755Z,101256.00
2023-05-02T17:06:51.018Z,101264.94
2023-05-02T17:09:22.263Z,101256.91
2023-05-02T17:12:19.564Z,101262.50
2023-05-02T17:14:53.121Z,101264.44
2023-05-02T17:21:28.016Z,101269.22
2023-05-02T17:24:19.913Z,101260.63
2023-05-02T17:27:14.871Z,101261.53
2023-05-02T17:29:50.982Z,101274.25
2023-05-02T17:32:37.617Z,101265.34
2023-05-02T17:35:13.669Z,101290.53
2023-05-02T17:37:52.108Z,101267.16
2023-05-02T17:50:19.155Z,101302.94
2023-05-02T17:59:06.533Z,101317.59
2023-05-02T18:01:55.702Z,101311.34
2023-05-02T18:04:33.473Z,101313.22
2023-05-02T18:10:29.319Z,101303.53
2023-05-02T18:13:11.833Z,101320.72
2023-05-02T18:19:08.697Z,101315.34
2023-05-02T18:41:12.695Z,101342.00
2023-05-02T18:52:07.272Z,101343.19
2023-05-02T18:55:14.993Z,101353.16
2023-05-02T19:05:36.494Z,101369.56
2023-05-02T19:08:28.165Z,101372.47
2023-05-02T19:11:45.577Z,101365.31
2023-05-02T19:22:20.977Z,101396.41
2023-05-02T19:32:31.296Z,101388.06
2023-05-02T19:39:20.123Z,101401.81
2023-05-02T19:45:55.873Z,101400.31
2023-05-02T19:52:44.878Z,101408.63
2023-05-02T19:55:36.754Z,101415.94
2023-05-02T19:58:25.804Z,101398.19
2023-05-02T20:01:27.762Z,101421.59
2023-05-02T20:04:24.473Z,101421.63
2023-05-02T20:06:51.636Z,101420.84
2023-05-02T20:09:23.712Z,101430.72
2023-05-02T20:12:11.862Z,101425.31
2023-05-02T20:17:10.410Z,101427.88
2023-05-02T20:17:59.377Z,101436.88
2023-05-02T20:20:33.190Z,101428.66
2023-05-02T20:23:12.354Z,101412.53
2023-05-02T20:25:58.214Z,101416.97
2023-05-02T20:28:25.245Z,101441.16
2023-05-02T20:30:54.996Z,101437.59
2023-05-02T20:33:27.558Z,101426.91
2023-05-02T20:36:18.580Z,101423.34
2023-05-02T20:39:13.808Z,101431.44
2023-05-02T20:41:53.246Z,101449.38
2023-05-02T20:44:49.449Z,101450.34
2023-05-02T20:53:57.480Z,101446.84
2023-05-02T20:56:29.061Z,101441.53
2023-05-02T21:03:03.033Z,101466.91
2023-05-02T21:09:58.457Z,101475.03
2023-05-02T21:13:27.973Z,101472.22
2023-05-02T21:17:03.994Z,101458.84
2023-05-02T21:20:28.438Z,101456.28
2023-05-02T21:23:50.066Z,101474.06
2023-05-02T21:30:34.711Z,101469.78
2023-05-02T21:36:27.058Z,101473.53
2023-05-02T21:59:54.446Z,101489.13
2023-05-02T22:07:07.693Z,101483.72
2023-05-02T22:10:31.952Z,101490.84
2023-05-02T22:13:35.517Z,101507.91
2023-05-02T22:59:29.558Z,101522.63
2023-05-02T23:06:11.315Z,101546.94
2023-05-02T23:08:37.776Z,101536.25
2023-05-02T23:11:04.186Z,101531.75
2023-05-02T23:13:31.904Z,101537.16
2023-05-02T23:15:58.303Z,101541.63
2023-05-02T23:18:24.745Z,101540.81
2023-05-02T23:20:51.155Z,101550.75
2023-05-02T23:23:17.582Z,101557.09
2023-05-02T23:25:44.000Z,101551.72
2023-05-02T23:28:10.410Z,101547.25
2023-05-02T23:30:38.491Z,101551.75
2023-05-02T23:33:04.982Z,101557.16
2023-05-02T23:35:32.184Z,101553.59
2023-05-02T23:37:59.131Z,101557.16
2023-05-02T23:40:26.997Z,101557.22
2023-05-02T23:42:53.668Z,101560.78
2023-05-02T23:45:20.201Z,101558.13
2023-05-02T23:47:47.948Z,101555.41
2023-05-02T23:50:14.463Z,101547.34
2023-05-02T23:52:40.939Z,101552.69
2023-05-02T23:55:08.079Z,101549.09
2023-05-02T23:57:34.484Z,101550.84
